Time;durP1;ratioP1;P1;durP2;ratioP2;P2;SDS_P1;SDS_P2;PMS_P1;PMS_P2;Temp;Humidity;BMP_temperature;BMP_pressure;BME280_temperature;BME280_humidity;BME280_pressure;Samples;Min_cycle;Max_cycle;Signal;HPM_P1;HPM_P2
2022/04/08 00:00:01;;;;;;;150.02;70.57;;;;;;;23.40;83.47;98073.41;5027127;28;20045;-72
2022/04/08 00:03:00;;;;;;;147.85;71.95;;;;;;;23.37;84.01;98075.50;5010076;28;20052;-71
2022/04/08 00:05:35;;;;;;;150.88;72.82;;;;;;;23.38;85.82;98071.91;5042375;28;20072;-69
2022/04/08 00:08:24;;;;;;;139.23;68.82;;;;;;;23.33;86.97;98068.84;5039963;28;20046;-69
2022/04/08 00:11:12;;;;;;;150.13;72.85;;;;;;;23.23;85.11;98077.56;5035126;28;20064;-70
2022/04/08 00:14:07;;;;;;;139.55;68.65;;;;;;;23.22;88.03;98077.75;5029662;28;20041;-70
2022/04/08 00:16:43;;;;;;;137.70;68.28;;;;;;;23.25;87.46;98083.53;5042149;28;20048;-70
2022/04/08 00:19:32;;;;;;;137.85;66.45;;;;;;;23.23;87.30;98077.56;5041319;28;20040;-69
2022/04/08 00:22:23;;;;;;;147.27;69.32;;;;;;;23.36;88.38;98079.94;5041932;28;20377;-71
2022/04/08 00:25:05;;;;;;;145.57;66.35;;;;;;;23.39;86.80;98081.44;5020050;28;20037;-70
2022/04/08 00:27:54;;;;;;;122.95;65.53;;;;;;;23.48;88.92;98078.81;5026979;28;20063;-70
2022/04/08 00:30:36;;;;;;;138.32;67.82;;;;;;;23.45;86.44;98073.00;5042740;28;20041;-70
2022/04/08 00:33:25;;;;;;;127.90;64.32;;;;;;;23.41;86.29;98079.50;5021013;28;20124;-70
2022/04/08 00:36:07;;;;;;;131.75;62.65;;;;;;;23.39;85.98;98078.81;5010603;28;20757;-70
2022/04/08 00:38:57;;;;;;;139.60;64.32;;;;;;;23.28;82.30;98082.44;5028064;28;20049;-69
2022/04/08 00:41:38;;;;;;;147.45;61.45;;;;;;;23.27;83.87;98086.84;5035405;28;20057;-70
2022/04/08 00:44:33;;;;;;;130.80;59.35;;;;;;;23.26;81.77;98090.44;5040019;28;20237;-70
2022/04/08 00:47:08;;;;;;;133.50;60.08;;;;;;;23.22;82.08;98090.88;5040988;28;20057;-69
2022/04/08 00:50:03;;;;;;;131.93;61.22;;;;;;;23.19;82.72;98085.91;5037351;28;20125;-69
2022/04/08 00:52:44;;;;;;;128.77;61.20;;;;;;;23.24;84.92;98087.13;5037096;28;20358;-70
2022/04/08 00:55:34;;;;;;;136.63;59.13;;;;;;;23.22;80.20;98086.47;4998172;28;20055;-70
2022/04/08 00:58:16;;;;;;;114.50;56.55;;;;;;;23.27;77.05;98089.50;5044370;28;20064;-70
2022/04/08 01:01:05;;;;;;;129.13;57.03;;;;;;;23.29;76.86;98091.97;5045163;28;20057;-71
2022/04/08 01:03:54;;;;;;;110.13;51.45;;;;;;;23.22;75.11;98096.97;5045218;28;20041;-70
2022/04/08 01:06:45;;;;;;;108.80;49.38;;;;;;;23.28;77.82;98099.03;5044118;28;20126;-70
2022/04/08 01:09:26;;;;;;;99.32;48.60;;;;;;;23.39;77.15;98099.84;5026055;28;20049;-70
2022/04/08 01:12:20;;;;;;;123.65;50.60;;;;;;;23.53;78.69;98096.81;5035779;28;20041;-70
2022/04/08 01:14:58;;;;;;;117.88;53.95;;;;;;;23.56;81.25;98097.34;5028112;28;20067;-70
2022/04/08 01:17:47;;;;;;;117.93;50.67;;;;;;;23.67;82.63;98101.63;5024926;28;20064;-71
2022/04/08 01:20:36;;;;;;;111.82;49.72;;;;;;;23.67;79.04;98106.88;5035570;28;20052;-70
2022/04/08 01:23:18;;;;;;;95.32;50.00;;;;;;;23.67;77.40;98109.53;5044763;28;20076;-70
2022/04/08 01:26:18;;;;;;;108.15;49.80;;;;;;;23.66;78.88;98102.59;5045415;28;20057;-73
2022/04/08 01:29:03;;;;;;;114.32;48.22;;;;;;;23.72;78.75;98114.34;5009979;28;20087;-71
2022/04/08 01:31:52;;;;;;;111.20;48.45;;;;;;;23.80;77.63;98114.47;5044555;28;20057;-71
2022/04/08 01:34:34;;;;;;;104.45;47.92;;;;;;;23.79;75.54;98112.78;5044646;28;20056;-71
2022/04/08 01:37:23;;;;;;;109.35;49.83;;;;;;;23.81;78.15;98111.69;5043329;28;20049;-71
2022/04/08 01:40:06;;;;;;;110.15;49.00;;;;;;;23.83;78.72;98115.00;5041432;28;20053;-71
2022/04/08 01:43:00;;;;;;;96.38;46.58;;;;;;;23.93;81.24;98115.81;5038638;28;20059;-72
2022/04/08 01:45:49;;;;;;;97.90;48.60;;;;;;;24.13;84.31;98113.09;5039417;28;20110;-72
2022/04/08 01:48:38;;;;;;;103.15;48.40;;;;;;;24.36;84.48;98109.97;5037187;28;20041;-70
2022/04/08 01:51:27;;;;;;;90.20;46.35;;;;;;;24.46;88.19;98104.66;5043291;28;20059;-69
2022/04/08 01:54:16;;;;;;;90.70;46.88;;;;;;;24.61;85.99;98107.63;5024657;28;20072;-69
2022/04/08 01:57:11;;;;;;;96.72;49.63;;;;;;;24.80;86.61;98112.78;5044855;28;20555;-69
2022/04/08 01:59:47;;;;;;;114.35;48.38;;;;;;;24.80;86.98;98118.03;5044124;28;20561;-71
2022/04/08 02:02:45;;;;;;;101.32;46.88;;;;;;;24.89;88.85;98114.50;5029539;28;20045;-69
2022/04/08 02:05:27;;;;;;;93.55;49.92;;;;;;;25.05;92.03;98119.16;5030175;28;20067;-69
2022/04/08 02:08:22;;;;;;;121.78;50.10;;;;;;;25.28;87.40;98114.22;5044525;28;20487;-69
2022/04/08 02:10:57;;;;;;;105.05;48.17;;;;;;;25.51;88.76;98124.16;5035515;28;20048;-71
2022/04/08 02:13:53;;;;;;;118.70;50.72;;;;;;;25.87;85.38;98122.25;5029889;28;20048;-72
2022/04/08 02:16:28;;;;;;;112.10;50.40;;;;;;;26.28;83.13;98115.41;5026035;28;20049;-72
2022/04/08 02:19:23;;;;;;;127.28;52.85;;;;;;;26.47;88.33;98122.28;5047177;28;20130;-70
2022/04/08 02:21:59;;;;;;;117.15;50.13;;;;;;;26.58;84.71;98123.81;5042718;28;20103;-70
2022/04/08 02:24:49;;;;;;;116.88;50.08;;;;;;;26.80;90.23;98119.72;5021823;28;20411;-70
2022/04/08 02:27:32;;;;;;;125.32;52.15;;;;;;;26.96;90.66;98125.06;5033497;28;20056;-70
2022/04/08 02:30:21;;;;;;;126.47;52.85;;;;;;;27.19;89.13;98133.19;5028000;28;20587;-69
2022/04/08 02:33:04;;;;;;;134.55;53.88;;;;;;;27.26;86.70;98137.66;5022483;28;20053;-69
2022/04/08 02:35:59;;;;;;;129.23;57.10;;;;;;;27.25;89.83;98127.25;5027969;28;20114;-71
2022/04/08 02:38:34;;;;;;;121.45;54.63;;;;;;;27.40;82.28;98134.34;5037691;28;20051;-70
2022/04/08 02:41:23;;;;;;;135.25;54.88;;;;;;;27.67;79.38;98130.56;5038577;28;20060;-70
2022/04/08 02:44:05;;;;;;;133.57;54.45;;;;;;;28.02;77.51;98131.16;5049891;28;20447;-69
2022/04/08 02:46:54;;;;;;;108.43;51.15;;;;;;;28.28;76.43;98133.59;5054080;28;20048;-69
2022/04/08 02:49:36;;;;;;;101.68;46.58;;;;;;;28.39;66.45;98142.00;5046603;28;20048;-69
2022/04/08 02:52:25;;;;;;;108.05;47.90;;;;;;;28.45;73.60;98143.97;5046518;28;20114;-69
2022/04/08 02:55:14;;;;;;;103.38;47.15;;;;;;;28.44;70.51;98144.97;5051384;28;20109;-69
2022/04/08 02:57:56;;;;;;;107.65;45.40;;;;;;;28.64;60.64;98149.88;5053092;28;20041;-70
2022/04/08 03:00:45;;;;;;;106.80;43.95;;;;;;;28.93;56.71;98150.06;5059973;28;20110;-71
2022/04/08 03:03:28;;;;;;;105.07;42.72;;;;;;;29.12;61.14;98152.28;5063676;28;20049;-71
2022/04/08 03:06:17;;;;;;;90.60;41.05;;;;;;;29.21;62.92;98153.84;5018422;28;20037;-70
2022/04/08 03:09:06;;;;;;;87.80;37.33;;;;;;;29.27;58.95;98157.63;5056301;28;20037;-70
2022/04/08 03:11:48;;;;;;;116.93;38.65;;;;;;;29.36;53.98;98161.09;5054949;28;20550;-70
2022/04/08 03:14:37;;;;;;;99.03;39.60;;;;;;;29.40;56.42;98167.69;5060637;28;20045;-70
2022/04/08 03:17:18;;;;;;;100.95;41.03;;;;;;;29.47;52.88;98168.63;5063278;28;20037;-70
2022/04/08 03:20:07;;;;;;;103.22;39.00;;;;;;;29.66;55.37;98174.28;5064246;28;20048;-71
2022/04/08 03:22:56;;;;;;;80.90;38.30;;;;;;;29.76;58.50;98178.50;5046524;28;20040;-71
2022/04/08 03:25:51;;;;;;;87.63;40.45;;;;;;;29.83;59.68;98182.09;5059487;28;20048;-71
2022/04/08 03:28:26;;;;;;;95.55;42.33;;;;;;;29.91;55.67;98188.16;5060756;28;20041;-70
2022/04/08 03:31:15;;;;;;;101.40;42.67;;;;;;;30.00;57.25;98180.97;5027307;28;20051;-71
2022/04/08 03:33:57;;;;;;;88.07;42.00;;;;;;;30.12;53.05;98187.47;5058775;28;20135;-70
2022/04/08 03:36:47;;;;;;;96.50;41.20;;;;;;;30.29;55.03;98188.13;5045947;28;20480;-70
2022/04/08 03:39:29;;;;;;;86.22;37.97;;;;;;;30.33;52.50;98198.22;5046521;28;20059;-70
2022/04/08 03:42:25;;;;;;;80.03;36.60;;;;;;;30.44;51.42;98202.25;5051612;28;20040;-70
2022/04/08 03:45:19;;;;;;;89.43;36.22;;;;;;;30.58;46.88;98216.56;5041241;28;20135;-70
2022/04/08 03:48:14;;;;;;;104.50;40.35;;;;;;;30.66;48.60;98214.66;5048263;28;20048;-71
2022/04/08 03:50:49;;;;;;;102.93;43.67;;;;;;;30.78;50.52;98215.84;5058762;28;20066;-71
2022/04/08 03:53:44;;;;;;;117.72;47.03;;;;;;;30.84;50.50;98221.41;5054767;28;20130;-71
2022/04/08 03:56:19;;;;;;;148.90;58.60;;;;;;;30.93;47.33;98225.63;5039264;28;20062;-70
2022/04/08 03:59:08;;;;;;;140.48;56.78;;;;;;;31.10;47.18;98227.09;5057901;28;20048;-70
2022/04/08 04:01:50;;;;;;;122.72;51.35;;;;;;;31.24;44.21;98222.75;5056314;28;20052;-72
2022/04/08 04:04:45;;;;;;;96.85;46.70;;;;;;;31.54;39.62;98227.78;5045283;28;20380;-72
2022/04/08 04:07:21;;;;;;;120.03;47.58;;;;;;;31.74;39.95;98232.50;5054236;28;20045;-72
2022/04/08 04:10:11;;;;;;;110.40;48.83;;;;;;;32.02;41.92;98230.69;5055169;28;20064;-71
2022/04/08 04:12:53;;;;;;;109.57;42.75;;;;;;;32.27;39.82;98231.09;5043598;28;20472;-72
2022/04/08 04:15:42;;;;;;;100.15;45.95;;;;;;;32.73;49.04;98220.72;5037197;28;20056;-72
2022/04/08 04:18:26;;;;;;;197.45;51.35;;;;;;;32.77;44.37;98219.31;5036498;28;20045;-72
2022/04/08 04:21:15;;;;;;;114.60;44.65;;;;;;;33.34;44.27;98229.63;5034451;28;20048;-72
2022/04/08 04:24:04;;;;;;;87.63;43.85;;;;;;;33.50;47.75;98228.41;5037200;28;20053;-72
2022/04/08 04:26:46;;;;;;;102.80;44.92;;;;;;;33.82;45.05;98234.03;5043736;28;20114;-71
2022/04/08 04:29:35;;;;;;;92.22;43.50;;;;;;;33.91;38.46;98246.19;5046946;28;20472;-71
2022/04/08 04:32:19;;;;;;;83.78;39.65;;;;;;;34.31;34.60;98237.13;5035810;28;20129;-71
2022/04/08 04:35:07;;;;;;;85.35;37.63;;;;;;;34.69;35.75;98236.44;5035607;28;20060;-69
2022/04/08 04:37:49;;;;;;;78.40;36.08;;;;;;;34.85;36.91;98236.00;5056290;28;20242;-65
2022/04/08 04:40:38;;;;;;;65.97;32.65;;;;;;;35.21;33.35;98241.59;5045223;28;20575;-65
2022/04/08 04:43:26;;;;;;;74.97;31.83;;;;;;;35.54;33.43;98230.72;5056667;28;20057;-65
2022/04/08 04:46:21;;;;;;;56.47;27.17;;;;;;;35.85;34.14;98235.25;5052916;28;20131;-65
2022/04/08 04:49:10;;;;;;;54.20;26.13;;;;;;;36.35;36.58;98227.22;5056277;28;20098;-65
2022/04/08 04:51:59;;;;;;;56.00;25.88;;;;;;;36.24;40.02;98219.91;5031033;28;20072;-65
2022/04/08 04:54:48;;;;;;;62.95;23.13;;;;;;;36.56;35.18;98229.44;5009545;28;20041;-66
2022/04/08 04:57:30;;;;;;;62.25;26.00;;;;;;;36.58;42.63;98226.56;5043808;28;20126;-65
2022/04/08 05:00:25;;;;;;;68.85;27.48;;;;;;;36.29;46.14;98220.88;5042503;28;20064;-65
2022/04/08 05:03:02;;;;;;;58.75;27.10;;;;;;;36.54;45.71;98218.13;5027644;28;20049;-65
2022/04/08 05:05:56;;;;;;;58.17;25.20;;;;;;;36.67;32.52;98230.63;5045335;28;20399;-65
2022/04/08 05:08:31;;;;;;;57.63;21.88;;;;;;;36.82;36.59;98233.75;5029502;28;20890;-64
2022/04/08 05:11:20;;;;;;;59.20;21.90;;;;;;;37.07;39.32;98218.34;5041787;28;20048;-64
2022/04/08 05:14:02;;;;;;;49.20;18.98;;;;;;;36.90;35.61;98235.31;5044571;28;20072;-65
2022/04/08 05:16:51;;;;;;;50.90;16.80;;;;;;;36.84;37.08;98228.16;5045187;28;20142;-63
2022/04/08 05:19:33;;;;;;;54.85;18.88;;;;;;;36.96;41.12;98221.78;5043453;28;20088;-64
2022/04/08 05:22:27;;;;;;;36.00;13.98;;;;;;;36.98;33.03;98235.00;5047564;28;20077;-69
2022/04/08 05:25:16;;;;;;;35.90;14.45;;;;;;;36.88;30.13;98234.72;5036874;28;20067;-69
2022/04/08 05:28:05;;;;;;;37.30;16.05;;;;;;;37.04;35.82;98231.41;5051606;28;20049;-69
2022/04/08 05:30:54;;;;;;;48.97;17.60;;;;;;;37.23;35.76;98224.97;5046467;28;20057;-69
2022/04/08 05:33:36;;;;;;;34.13;15.80;;;;;;;37.49;36.64;98223.78;5047179;28;20049;-68
2022/04/08 05:36:25;;;;;;;45.67;16.77;;;;;;;37.15;38.33;98217.25;5041907;28;20053;-69
2022/04/08 05:39:14;;;;;;;42.63;17.05;;;;;;;37.19;30.55;98229.19;5044255;28;20528;-69
2022/04/08 05:41:56;;;;;;;46.23;17.27;;;;;;;37.35;35.05;98223.16;5029981;28;20049;-70
2022/04/08 05:44:51;;;;;;;33.53;16.60;;;;;;;37.48;32.04;98220.28;5034662;28;20036;-70
2022/04/08 05:47:31;;;;;;;38.95;14.90;;;;;;;37.47;34.00;98212.44;5051692;28;20044;-70
2022/04/08 05:50:21;;;;;;;41.80;15.38;;;;;;;37.36;28.93;98211.34;5054693;28;20063;-69
2022/04/08 05:53:03;;;;;;;34.88;14.32;;;;;;;37.62;31.96;98206.66;5053250;28;20059;-68
2022/04/08 05:56:18;;;;;;;36.75;15.18;;;;;;;37.58;35.77;98202.78;5048376;28;20041;-69
2022/04/08 05:58:53;;;;;;;34.63;16.02;;;;;;;37.56;35.90;98194.94;5060253;28;20399;-68
2022/04/08 06:01:42;;;;;;;29.83;13.45;;;;;;;37.86;29.49;98205.66;5055351;28;20667;-68
2022/04/08 06:04:32;;;;;;;39.67;14.93;;;;;;;37.59;29.10;98199.03;5049520;28;20052;-68
2022/04/08 06:07:24;;;;;;;31.23;12.85;;;;;;;37.49;25.33;98199.59;5035543;28;20044;-68
2022/04/08 06:10:18;;;;;;;36.05;13.15;;;;;;;37.34;27.57;98188.44;5051025;28;20055;-68
2022/04/08 06:13:01;;;;;;;37.80;14.38;;;;;;;37.58;30.73;98189.31;5058019;28;20115;-68
2022/04/08 06:15:51;;;;;;;41.30;14.38;;;;;;;37.78;28.72;98187.97;5039877;28;20406;-67
2022/04/08 06:18:40;;;;;;;33.25;14.75;;;;;;;37.85;32.40;98187.84;5039774;28;20078;-68
2022/04/08 06:21:22;;;;;;;39.10;16.50;;;;;;;37.61;35.70;98184.31;5054551;28;20144;-68
2022/04/08 06:24:17;;;;;;;33.50;15.00;;;;;;;37.51;28.82;98181.38;5052758;28;20063;-67
2022/04/08 06:26:52;;;;;;;43.63;16.45;;;;;;;37.57;35.01;98179.63;5037409;28;20040;-68
2022/04/08 06:29:41;;;;;;;32.65;16.05;;;;;;;37.52;31.43;98175.75;5052555;28;20129;-68
2022/04/08 06:32:23;;;;;;;41.42;16.10;;;;;;;37.65;28.30;98179.31;5036837;28;20060;-68
2022/04/08 06:35:12;;;;;;;52.85;15.85;;;;;;;37.90;32.24;98175.38;5050435;28;20427;-68
2022/04/08 06:37:54;;;;;;;43.47;15.68;;;;;;;37.78;32.53;98176.41;5053981;28;20044;-67
2022/04/08 06:40:50;;;;;;;40.75;16.40;;;;;;;37.67;31.87;98174.53;5038357;28;20060;-67
2022/04/08 06:43:25;;;;;;;38.45;17.58;;;;;;;37.41;28.18;98160.41;5058094;28;20033;-67
2022/04/08 06:46:14;;;;;;;44.83;17.35;;;;;;;37.49;31.33;98162.78;5037158;28;20053;-67
2022/04/08 06:49:03;;;;;;;38.25;15.57;;;;;;;37.52;31.20;98170.34;5030964;28;20055;-67
2022/04/08 06:51:53;;;;;;;38.28;16.77;;;;;;;37.64;31.86;98158.84;5043368;28;20110;-66
2022/04/08 06:54:35;;;;;;;40.25;15.15;;;;;;;37.49;31.31;98152.03;5042878;28;20349;-67
2022/04/08 06:57:24;;;;;;;34.13;15.68;;;;;;;37.36;29.80;98157.59;5044021;28;20068;-67
2022/04/08 07:00:06;;;;;;;50.00;16.17;;;;;;;37.38;28.95;98155.50;5031613;28;20692;-69
2022/04/08 07:02:55;;;;;;;39.70;15.75;;;;;;;37.39;26.64;98157.13;5038887;28;20041;-68
2022/04/08 07:05:37;;;;;;;40.50;16.45;;;;;;;37.43;28.01;98147.56;5043526;28;20069;-69
2022/04/08 07:08:33;;;;;;;41.65;14.13;;;;;;;37.36;31.29;98141.44;5042998;28;20049;-69
2022/04/08 07:11:09;;;;;;;44.45;16.08;;;;;;;37.36;29.07;98140.63;5044238;28;20048;-68
2022/04/08 07:13:57;;;;;;;40.53;17.42;;;;;;;37.35;26.60;98137.16;5045769;28;20069;-69
2022/04/08 07:16:41;;;;;;;47.75;16.38;;;;;;;37.30;28.74;98133.50;5043240;28;20045;-69
2022/04/08 07:19:30;;;;;;;39.75;16.92;;;;;;;37.39;31.00;98124.88;5043789;28;20068;-68
2022/04/08 07:22:12;;;;;;;44.10;20.25;;;;;;;37.29;27.75;98132.69;5044284;28;20332;-68
2022/04/08 07:25:07;;;;;;;41.88;19.85;;;;;;;37.32;28.77;98121.47;5042414;28;20518;-67
2022/04/08 07:27:56;;;;;;;46.00;18.60;;;;;;;37.36;31.51;98114.56;5039529;28;20045;-68
2022/04/08 07:30:37;;;;;;;49.45;21.80;;;;;;;37.36;30.86;98114.56;5042506;28;20123;-67
2022/04/08 07:33:32;;;;;;;48.50;19.77;;;;;;;37.40;31.13;98106.88;5032920;28;20048;-66
2022/04/08 07:36:07;;;;;;;44.67;20.33;;;;;;;37.28;30.69;98109.53;5036851;28;20080;-68
2022/04/08 07:38:56;;;;;;;43.65;20.17;;;;;;;37.25;31.37;98101.94;5044027;28;20044;-66
2022/04/08 07:41:38;;;;;;;62.13;20.70;;;;;;;37.28;32.35;98093.41;5042449;28;20480;-67
2022/04/08 07:44:27;;;;;;;41.50;18.77;;;;;;;37.23;31.91;98093.28;5052798;28;20041;-68
2022/04/08 07:47:12;;;;;;;40.58;19.10;;;;;;;37.19;30.03;98080.56;5062389;28;20533;-68
2022/04/08 07:50:04;;;;;;;41.08;19.42;;;;;;;37.12;30.98;98085.97;5064044;28;20157;-67
2022/04/08 07:52:47;;;;;;;36.35;19.15;;;;;;;36.98;31.08;98077.31;5061376;28;20044;-67
2022/04/08 07:55:36;;;;;;;38.20;19.80;;;;;;;36.92;30.67;98075.53;5062099;28;20052;-67
2022/04/08 07:58:25;;;;;;;51.63;21.55;;;;;;;36.71;26.82;98068.84;5061959;28;20101;-68
2022/04/08 08:01:08;;;;;;;48.55;20.00;;;;;;;36.77;30.54;98059.84;5062549;28;20149;-68
2022/04/08 08:03:57;;;;;;;38.15;19.33;;;;;;;36.90;31.53;98060.69;5061859;28;20048;-67
2022/04/08 08:06:52;;;;;;;42.35;19.55;;;;;;;36.91;31.35;98056.97;5062737;28;20060;-67
2022/04/08 08:09:27;;;;;;;45.97;20.10;;;;;;;36.96;29.55;98063.28;5061415;28;20059;-66
2022/04/08 08:12:33;;;;;;;49.35;22.23;;;;;;;36.99;30.40;98049.41;5060569;28;20135;-67
2022/04/08 08:15:16;;;;;;;45.45;21.00;;;;;;;36.98;31.41;98041.56;5045768;28;20040;-65
2022/04/08 08:18:07;;;;;;;50.28;19.42;;;;;;;36.90;31.47;98040.03;5060002;28;20098;-66
2022/04/08 08:20:49;;;;;;;33.97;18.30;;;;;;;36.95;30.01;98036.66;5061504;28;20048;-67
2022/04/08 08:23:38;;;;;;;39.65;21.08;;;;;;;36.91;30.03;98030.09;5058714;28;20072;-66
2022/04/08 08:26:21;;;;;;;40.25;20.13;;;;;;;36.95;30.04;98033.97;5056398;28;20714;-65
2022/04/08 08:29:16;;;;;;;50.03;21.35;;;;;;;36.92;30.16;98024.50;5053154;28;20476;-65
2022/04/08 08:31:51;;;;;;;43.08;17.92;;;;;;;36.89;30.57;98024.13;5060809;28;20102;-65
2022/04/08 08:34:50;;;;;;;38.78;17.60;;;;;;;36.86;30.70;98021.94;5060089;28;20053;-63
2022/04/08 08:37:25;;;;;;;35.08;15.80;;;;;;;36.87;30.77;98018.19;5061462;28;20472;-65
2022/04/08 08:40:15;;;;;;;27.25;15.63;;;;;;;36.90;29.25;98023.09;5063437;28;20109;-65
2022/04/08 08:43:08;;;;;;;33.97;14.07;;;;;;;36.84;27.32;98008.72;5065429;28;20037;-66
2022/04/08 08:46:04;;;;;;;38.42;13.65;;;;;;;36.74;30.42;98003.91;5062460;28;20048;-66
2022/04/08 08:48:40;;;;;;;28.80;12.27;;;;;;;36.67;29.08;98005.88;5066618;28;20645;-66
2022/04/08 08:51:35;;;;;;;41.70;12.82;;;;;;;36.53;29.65;97999.03;5062011;28;20049;-65
2022/04/08 08:54:17;;;;;;;29.58;11.27;;;;;;;36.61;29.96;97997.91;5059126;28;20064;-66
2022/04/08 08:57:12;;;;;;;24.52;11.48;;;;;;;36.61;26.58;97995.22;5083133;28;20105;-66
2022/04/08 08:59:50;;;;;;;20.73;9.27;;;;;;;36.59;27.35;97990.06;5066542;28;20068;-66
2022/04/08 09:02:49;;;;;;;23.52;10.18;;;;;;;36.53;32.51;97985.63;5078107;28;20055;-67
2022/04/08 09:05:25;;;;;;;21.85;10.23;;;;;;;36.42;31.16;97973.78;5062162;28;20151;-66
2022/04/08 09:08:14;;;;;;;27.88;11.55;;;;;;;36.32;29.65;97968.13;5063965;28;20040;-66
2022/04/08 09:10:56;;;;;;;21.02;10.77;;;;;;;36.28;31.97;97963.47;5065158;28;20109;-65
2022/04/08 09:13:46;;;;;;;32.58;11.18;;;;;;;36.18;29.80;97961.28;5071538;28;20052;-66
2022/04/08 09:16:35;;;;;;;28.65;9.63;;;;;;;36.18;29.29;97955.09;5066440;28;20051;-64
2022/04/08 09:19:24;;;;;;;29.45;11.60;;;;;;;36.32;28.19;97951.25;5049841;28;20132;-65
2022/04/08 09:22:07;;;;;;;37.30;11.27;;;;;;;36.21;28.63;97944.78;5068723;28;20041;-65
2022/04/08 09:25:10;;;;;;;21.75;11.02;;;;;;;36.17;26.88;97942.72;5071743;28;20056;-65
2022/04/08 09:27:52;;;;;;;40.85;10.63;;;;;;;36.31;27.24;97945.06;5074673;28;20048;-65
2022/04/08 09:30:47;;;;;;;22.98;10.07;;;;;;;36.34;27.19;97933.84;5064954;28;20052;-65
2022/04/08 09:33:29;;;;;;;38.65;11.77;;;;;;;36.29;29.47;97925.69;5066993;28;20479;-65
2022/04/08 09:36:31;;;;;;;27.80;10.80;;;;;;;36.44;28.21;97925.25;5070873;28;20045;-64
2022/04/08 09:39:14;;;;;;;35.53;11.77;;;;;;;36.48;29.33;97922.94;5069168;28;20059;-65
2022/04/08 09:42:06;;;;;;;40.17;11.40;;;;;;;36.45;29.46;97921.53;5069226;28;20060;-65
2022/04/08 09:44:55;;;;;;;30.23;11.27;;;;;;;36.41;28.22;97913.09;5052559;28;20303;-64
2022/04/08 09:47:44;;;;;;;38.45;12.55;;;;;;;36.34;30.67;97906.19;5044154;28;20049;-65
2022/04/08 09:50:26;;;;;;;24.30;10.65;;;;;;;36.23;29.97;97907.00;5041737;28;20053;-65
2022/04/08 09:53:16;;;;;;;25.05;11.18;;;;;;;36.20;29.39;97905.59;5043919;28;20297;-66
2022/04/08 09:55:58;;;;;;;36.30;11.18;;;;;;;36.25;28.95;97907.56;5044028;28;20148;-65
2022/04/08 09:59:11;;;;;;;27.13;10.65;;;;;;;36.27;28.87;97902.78;5041507;28;20048;-65
2022/04/08 10:02:25;;;;;;;28.27;9.65;;;;;;;36.28;25.42;97896.38;5043248;28;20053;-66
2022/04/08 10:05:22;;;;;;;17.85;9.30;;;;;;;36.19;28.91;97898.56;5043038;28;20373;-66
2022/04/08 10:08:05;;;;;;;22.08;9.43;;;;;;;36.10;27.42;97889.19;5045214;28;20045;-65
2022/04/08 10:11:40;;;;;;;23.65;8.50;;;;;;;36.11;24.47;97895.38;5042251;28;20683;-65
2022/04/08 10:14:46;;;;;;;18.33;7.72;;;;;;;36.03;26.63;97888.47;5024133;28;20465;-65
2022/04/08 10:17:41;;;;;;;24.45;8.35;;;;;;;35.96;27.11;97880.50;5043091;28;20055;-65
2022/04/08 10:20:21;;;;;;;23.30;8.65;;;;;;;35.89;27.95;97882.47;5041049;28;20060;-66
2022/04/08 10:23:11;;;;;;;19.63;8.60;;;;;;;35.75;30.57;97872.97;5040878;28;20049;-66
2022/04/08 10:25:53;;;;;;;24.80;8.30;;;;;;;35.66;27.55;97882.34;5037581;28;20131;-65
2022/04/08 10:28:42;;;;;;;30.08;8.32;;;;;;;35.59;29.90;97876.22;5041422;28;20158;-66
2022/04/08 10:31:32;;;;;;;27.02;8.50;;;;;;;35.62;24.34;97870.41;5036589;28;20053;-65
2022/04/08 10:34:23;;;;;;;24.95;9.52;;;;;;;35.56;28.40;97863.28;5042075;28;20385;-66
2022/04/08 10:37:26;;;;;;;23.13;8.75;;;;;;;35.46;30.85;97852.25;5044163;28;20041;-65
2022/04/08 10:40:21;;;;;;;19.90;8.13;;;;;;;35.30;30.99;97859.88;5042428;28;20148;-67
2022/04/08 10:43:10;;;;;;;28.60;9.38;;;;;;;35.33;27.96;97863.16;5038758;28;20048;-66
2022/04/08 10:46:05;;;;;;;27.35;8.88;;;;;;;35.30;26.53;97857.19;5054309;28;20045;-67
2022/04/08 10:48:40;;;;;;;19.35;7.53;;;;;;;35.17;30.05;97854.63;5045174;28;20118;-64
2022/04/08 10:51:30;;;;;;;23.00;8.32;;;;;;;35.06;30.36;97847.31;5044159;28;20493;-65
2022/04/08 10:54:12;;;;;;;16.42;7.80;;;;;;;35.01;31.01;97847.19;5045318;28;20041;-64
2022/04/08 10:57:07;;;;;;;24.65;6.78;;;;;;;35.16;27.18;97849.50;5045488;28;20049;-66
2022/04/08 10:59:53;;;;;;;29.50;10.77;;;;;;;35.38;27.07;97844.53;5050428;28;20047;-65
2022/04/08 11:02:44;;;;;;;26.58;8.10;;;;;;;35.21;26.55;97839.72;5040857;28;20040;-67
2022/04/08 11:05:32;;;;;;;21.83;7.05;;;;;;;35.38;24.83;97841.84;5053351;28;20105;-67
2022/04/08 11:08:14;;;;;;;23.67;7.28;;;;;;;35.32;26.35;97834.72;5061622;28;20493;-65
2022/04/08 11:11:05;;;;;;;20.30;7.60;;;;;;;35.10;28.64;97834.31;5047209;28;20115;-67
2022/04/08 11:14:04;;;;;;;18.65;7.65;;;;;;;34.98;28.38;97825.38;5052456;28;20048;-66
2022/04/08 11:16:41;;;;;;;20.35;7.43;;;;;;;34.84;28.37;97827.38;5051400;28;20045;-66
2022/04/08 11:19:31;;;;;;;26.67;7.57;;;;;;;34.90;28.07;97829.97;5052311;28;20129;-66
2022/04/08 11:22:18;;;;;;;25.55;8.15;;;;;;;34.71;29.38;97824.81;5054890;28;20060;-66
2022/04/08 11:25:09;;;;;;;14.60;7.22;;;;;;;34.68;27.96;97819.88;5051491;28;20044;-66
2022/04/08 11:28:06;;;;;;;33.67;9.50;;;;;;;34.56;29.73;97822.47;5049347;28;20502;-65
2022/04/08 11:30:58;;;;;;;19.90;7.72;;;;;;;34.42;30.40;97821.75;5052802;28;20444;-66
2022/04/08 11:33:40;;;;;;;26.33;8.57;;;;;;;34.29;30.63;97821.88;5039748;28;20055;-67
2022/04/08 11:36:35;;;;;;;20.73;8.05;;;;;;;34.16;32.53;97828.09;5046221;28;20056;-66
2022/04/08 11:39:19;;;;;;;19.58;8.40;;;;;;;33.98;33.92;97820.03;5044452;28;20045;-67
2022/04/08 11:42:08;;;;;;;26.80;8.65;;;;;;;33.89;31.66;97823.16;5045190;28;20079;-65
2022/04/08 11:44:51;;;;;;;31.48;8.70;;;;;;;33.84;33.66;97817.66;5057566;28;20040;-66
2022/04/08 11:47:46;;;;;;;20.58;8.50;;;;;;;33.78;35.11;97813.97;5065760;28;20068;-66
2022/04/08 11:50:32;;;;;;;26.42;8.43;;;;;;;33.66;33.98;97815.66;5065895;28;20044;-67
2022/04/08 11:53:22;;;;;;;28.00;9.15;;;;;;;33.54;33.28;97815.50;5051369;28;20052;-66
2022/04/08 11:56:11;;;;;;;24.85;8.30;;;;;;;33.48;32.28;97816.34;5053523;28;20053;-66
2022/04/08 11:59:10;;;;;;;28.15;8.20;;;;;;;33.41;35.30;97815.56;5053167;28;20522;-65
2022/04/08 12:01:45;;;;;;;22.50;9.75;;;;;;;33.37;35.10;97811.66;5038530;28;20157;-65
2022/04/08 12:04:39;;;;;;;23.38;8.55;;;;;;;33.24;36.12;97811.72;5041146;28;20053;-65
2022/04/08 12:07:31;;;;;;;34.28;9.85;;;;;;;33.13;36.03;97812.34;5042750;28;20056;-65
2022/04/08 12:10:29;;;;;;;33.03;9.00;;;;;;;32.95;37.32;97813.84;5050317;28;20072;-64
2022/04/08 12:13:19;;;;;;;30.15;8.90;;;;;;;32.77;38.85;97816.34;5045410;28;20055;-67
2022/04/08 12:16:13;;;;;;;22.50;8.65;;;;;;;32.73;37.39;97817.78;5046927;28;20543;-65
2022/04/08 12:18:57;;;;;;;24.00;8.77;;;;;;;32.70;36.70;97814.72;5048808;28;20624;-65
2022/04/08 12:22:26;;;;;;;28.02;9.00;;;;;;;32.52;40.04;97810.00;5045974;28;20056;-64
2022/04/08 12:25:01;;;;;;;26.63;7.95;;;;;;;32.37;39.40;97810.22;5024350;28;20048;-66
2022/04/08 12:27:58;;;;;;;18.63;9.02;;;;;;;32.20;41.96;97815.13;5046660;28;20045;-66
2022/04/08 12:30:51;;;;;;;25.35;8.57;;;;;;;32.12;37.20;97814.47;5047926;28;20456;-65
2022/04/08 12:33:33;;;;;;;27.48;8.80;;;;;;;32.00;37.63;97814.28;5046775;28;20842;-66
2022/04/08 12:36:23;;;;;;;23.70;8.65;;;;;;;31.91;38.95;97815.47;5049705;28;20057;-66
2022/04/08 12:39:04;;;;;;;22.20;9.10;;;;;;;31.80;37.22;97808.88;5061263;28;20060;-66
2022/04/08 12:41:54;;;;;;;21.00;8.95;;;;;;;31.72;41.38;97808.25;5045091;28;20123;-66
2022/04/08 12:44:36;;;;;;;32.47;8.93;;;;;;;31.62;38.18;97805.16;5028097;28;20052;-67
2022/04/08 12:47:25;;;;;;;32.53;10.40;;;;;;;31.52;43.40;97808.19;5024915;28;20053;-68
2022/04/08 12:50:08;;;;;;;21.65;8.98;;;;;;;31.39;44.08;97808.94;5041918;28;20037;-67